KGAI/GAI METAR and TAF weather

Enter ICAO airport designator
Station Type Date Time Source
KGAI METAR 2021/02/27 21:56 UTC NOAA

KGAI 272156Z AUTO 23004KT 10SM CLR 11/06 A3013 RMK AO2 SLP220 T01110061


Station Type Date Time Source
KGAI Decoded METAR 2021/02/27 21:56 UTC NOAA

Station name not available
Feb 27, 2021 - 04:56 PM EST / 2021.02.27 2156 UTC
Wind: from the SW (230 degrees) at 5 MPH (4 KT):0
Visibility: 10 mile(s):0
Sky conditions: clear
Temperature: 52.0 F (11.1 C)
Dew Point: 43.0 F (6.1 C)
Relative Humidity: 71%
Pressure (altimeter): 30.13 in. Hg (1020 hPa)
ob: KGAI 272156Z AUTO 23004KT 10SM CLR 11/06 A3013 RMK AO2 SLP220 T01110061
cycle: 22

Station Type Date Time Source
KGAI TAF UTC NOAA

Error!

Example: see airport list